Time;durP1;ratioP1;P1;durP2;ratioP2;P2;SDS_P1;SDS_P2;PMS_P1;PMS_P2;Temp;Humidity;BMP_temperature;BMP_pressure;BME280_temperature;BME280_humidity;BME280_pressure;Samples;Min_cycle;Max_cycle;Signal;HPM_P1;HPM_P2
2021/12/28 00:02:03;;;;;;;3.33;1.38;;;0.90;99.90;;;;;;5253274;28;20045;-78
2021/12/28 00:04:39;;;;;;;;;;;0.90;99.90;;;;;;5213903;28;20115;-78
2021/12/28 00:07:14;;;;;;;1.40;1.40;;;1.00;99.90;;;;;;5246587;28;19912;-79
2021/12/28 00:09:47;;;;;;;2.45;2.25;;;1.00;99.90;;;;;;5254071;28;20024;-77
2021/12/28 00:12:24;;;;;;;1.30;1.30;;;1.00;99.90;;;;;;5241567;28;20036;-77
2021/12/28 00:15:19;;;;;;;0.65;0.65;;;1.00;99.90;;;;;;5241988;28;20047;-77
2021/12/28 00:18:00;;;;;;;0.50;0.50;;;1.10;99.90;;;;;;5255024;28;20032;-78
2021/12/28 00:20:41;;;;;;;1.58;1.58;;;1.10;99.90;;;;;;5249940;28;20020;-78
2021/12/28 00:23:28;;;;;;;2.65;2.55;;;1.20;99.90;;;;;;5214516;28;20073;-78
2021/12/28 00:26:06;;;;;;;1.27;1.27;;;1.10;99.90;;;;;;5234141;28;20031;-79
2021/12/28 00:28:42;;;;;;;1.15;1.15;;;1.10;99.90;;;;;;5256032;28;20102;-78
2021/12/28 00:31:16;;;;;;;0.55;0.55;;;1.20;99.90;;;;;;5258160;28;20048;-79
2021/12/28 00:33:50;;;;;;;0.70;0.70;;;1.10;99.90;;;;;;5244471;28;20546;-78
2021/12/28 00:36:21;;;;;;;2.17;2.08;;;1.20;99.90;;;;;;5230411;28;20461;-78
2021/12/28 00:38:53;;;;;;;0.50;0.50;;;1.20;99.90;;;;;;5251494;28;20044;-80
2021/12/28 00:41:27;;;;;;;1.13;1.13;;;1.10;99.90;;;;;;5231967;28;20095;-80
2021/12/28 00:44:08;;;;;;;1.00;0.80;;;1.20;99.90;;;;;;5236078;28;20059;-80
2021/12/28 00:46:39;;;;;;;0.60;0.60;;;1.20;99.90;;;;;;5258114;28;20263;-80
2021/12/28 00:49:15;;;;;;;0.55;0.55;;;1.20;99.90;;;;;;5234626;28;20073;-79
2021/12/28 00:51:47;;;;;;;0.70;0.70;;;1.20;99.90;;;;;;5245869;28;20039;-79
2021/12/28 00:54:22;;;;;;;0.70;0.70;;;1.20;99.90;;;;;;5233150;28;20040;-78
2021/12/28 00:56:55;;;;;;;0.95;0.95;;;1.20;99.90;;;;;;5238670;28;20028;-78
2021/12/28 00:59:31;;;;;;;1.27;1.20;;;1.20;99.90;;;;;;5236335;28;20074;-80
2021/12/28 01:02:07;;;;;;;0.57;0.57;;;1.30;99.90;;;;;;5225407;28;20650;-78
2021/12/28 01:04:38;;;;;;;0.60;0.60;;;1.30;99.90;;;;;;5247776;28;20101;-78
2021/12/28 01:07:11;;;;;;;0.65;0.65;;;1.30;99.90;;;;;;5232432;28;20482;-78
2021/12/28 01:09:45;;;;;;;1.65;1.55;;;1.30;99.90;;;;;;5258661;28;20042;-78
2021/12/28 01:12:22;;;;;;;1.30;1.30;;;1.30;99.90;;;;;;5247552;28;20032;-79
2021/12/28 01:14:53;;;;;;;0.50;0.50;;;1.40;99.90;;;;;;5235616;28;20068;-78
2021/12/28 01:17:33;;;;;;;1.85;1.50;;;1.30;99.90;;;;;;5258697;28;20413;-79
2021/12/28 01:20:07;;;;;;;1.80;1.70;;;1.40;99.90;;;;;;5254489;28;20042;-77
2021/12/28 01:22:42;;;;;;;1.08;1.08;;;1.40;99.90;;;;;;5231871;28;20174;-78
2021/12/28 01:25:20;;;;;;;;;;;1.30;99.90;;;;;;5250238;28;20056;-78
2021/12/28 01:27:54;;;;;;;0.60;0.60;;;1.40;99.90;;;;;;5249449;28;19920;-79
2021/12/28 01:30:27;;;;;;;;;;;1.40;99.90;;;;;;5273316;28;20067;-79
2021/12/28 01:33:00;;;;;;;0.60;0.60;;;1.30;99.90;;;;;;5251646;28;19912;-79
2021/12/28 01:35:38;;;;;;;1.52;1.50;;;1.30;99.90;;;;;;5232747;28;20028;-79
2021/12/28 01:38:14;;;;;;;0.50;0.50;;;1.30;99.90;;;;;;5251305;28;20028;-78
2021/12/28 01:40:47;;;;;;;0.65;0.65;;;1.30;99.90;;;;;;5258405;28;20036;-79
2021/12/28 01:43:26;;;;;;;0.87;0.87;;;1.20;99.90;;;;;;5250678;28;20559;-78
2021/12/28 01:46:00;;;;;;;1.23;1.23;;;1.30;99.90;;;;;;5244272;28;20106;-79
2021/12/28 01:48:44;;;;;;;0.55;0.55;;;1.30;99.90;;;;;;5238267;28;20036;-79
2021/12/28 01:51:24;;;;;;;0.70;0.70;;;1.20;99.90;;;;;;5263252;28;20045;-78
2021/12/28 01:54:01;;;;;;;0.50;0.50;;;1.20;99.90;;;;;;5274036;28;20039;-79
2021/12/28 01:56:40;;;;;;;0.85;0.85;;;1.10;99.90;;;;;;5246748;28;20040;-78
2021/12/28 01:59:24;;;;;;;0.50;0.50;;;1.00;99.90;;;;;;5254146;28;20032;-78
2021/12/28 02:01:58;;;;;;;0.43;0.43;;;1.00;99.90;;;;;;5246076;28;20100;-79
2021/12/28 02:04:29;;;;;;;0.88;0.88;;;1.00;99.90;;;;;;5230381;28;20068;-78
2021/12/28 02:07:02;;;;;;;1.40;1.33;;;1.00;99.90;;;;;;5250673;28;20036;-78
2021/12/28 02:09:33;;;;;;;1.25;1.25;;;1.00;99.90;;;;;;5255638;28;20101;-78
2021/12/28 02:12:07;;;;;;;1.55;1.45;;;1.00;99.90;;;;;;5231437;28;20086;-79
2021/12/28 02:14:44;;;;;;;;;;;0.90;99.90;;;;;;5245287;28;20043;-76
2021/12/28 02:17:17;;;;;;;0.95;0.95;;;1.00;99.90;;;;;;5245494;28;19912;-76
2021/12/28 02:19:48;;;;;;;0.70;0.70;;;1.00;99.90;;;;;;5231619;28;20052;-75
2021/12/28 02:22:21;;;;;;;0.50;0.50;;;1.10;99.90;;;;;;5224155;28;20023;-78
2021/12/28 02:24:52;;;;;;;1.30;1.30;;;1.20;99.90;;;;;;5254600;28;20115;-76
2021/12/28 02:27:30;;;;;;;0.50;0.50;;;1.20;99.90;;;;;;5233932;28;20048;-76
2021/12/28 02:30:10;;;;;;;2.10;1.98;;;1.10;99.90;;;;;;5247082;28;20062;-77
2021/12/28 02:32:42;;;;;;;0.70;0.70;;;1.00;99.90;;;;;;5257823;28;20034;-76
2021/12/28 02:35:28;;;;;;;1.33;1.30;;;1.10;99.90;;;;;;5245893;28;20020;-77
2021/12/28 02:37:58;;;;;;;;;;;1.20;99.90;;;;;;5251980;28;20047;-76
2021/12/28 02:40:32;;;;;;;0.77;0.77;;;1.30;99.90;;;;;;5243610;28;19957;-77
2021/12/28 02:43:10;;;;;;;0.80;0.80;;;1.30;99.90;;;;;;5261809;28;20046;-76
2021/12/28 02:45:54;;;;;;;0.60;0.60;;;1.20;99.90;;;;;;5244772;28;20028;-76
2021/12/28 02:48:26;;;;;;;0.50;0.50;;;1.20;99.90;;;;;;5242646;28;20026;-76
2021/12/28 02:51:11;;;;;;;0.60;0.60;;;1.10;99.90;;;;;;5251155;28;20031;-76
2021/12/28 02:53:49;;;;;;;0.63;0.63;;;1.10;99.90;;;;;;5254503;28;20048;-76
2021/12/28 02:56:21;;;;;;;3.05;2.05;;;1.10;99.90;;;;;;5246617;28;20059;-76
2021/12/28 02:58:59;;;;;;;0.60;0.60;;;1.20;99.90;;;;;;5243754;28;20108;-76
2021/12/28 03:01:34;;;;;;;1.13;1.13;;;1.20;99.90;;;;;;5251881;28;20044;-76
2021/12/28 03:04:08;;;;;;;0.70;0.70;;;1.20;99.90;;;;;;5264790;28;20103;-76
2021/12/28 03:06:38;;;;;;;0.60;0.60;;;1.30;99.90;;;;;;5244969;28;20064;-77
2021/12/28 03:09:18;;;;;;;0.55;0.55;;;1.30;99.90;;;;;;5251610;28;20024;-76
2021/12/28 03:11:52;;;;;;;1.00;1.00;;;1.30;99.90;;;;;;5243842;28;20040;-76
2021/12/28 03:14:26;;;;;;;0.68;0.68;;;1.30;99.90;;;;;;5253214;28;20046;-77
2021/12/28 03:16:59;;;;;;;0.60;0.60;;;1.40;99.90;;;;;;5227029;28;20063;-76
2021/12/28 03:19:41;;;;;;;0.85;0.70;;;1.30;99.90;;;;;;5246974;28;20043;-76
2021/12/28 03:22:14;;;;;;;0.52;0.52;;;1.30;99.90;;;;;;5270809;28;20033;-77
2021/12/28 03:24:45;;;;;;;0.88;0.88;;;1.00;99.90;;;;;;5253572;28;20032;-77
2021/12/28 03:27:21;;;;;;;0.68;0.68;;;1.10;99.90;;;;;;5243103;28;20059;-78
2021/12/28 03:29:53;;;;;;;0.50;0.50;;;1.20;99.90;;;;;;5247104;28;20059;-76
2021/12/28 03:32:24;;;;;;;0.50;0.50;;;1.20;99.90;;;;;;5253145;28;20032;-77
2021/12/28 03:35:06;;;;;;;0.70;0.70;;;1.20;99.90;;;;;;5223994;28;20051;-76
2021/12/28 03:37:39;;;;;;;1.13;1.13;;;1.20;99.90;;;;;;5258626;28;20066;-77
2021/12/28 03:40:15;;;;;;;1.42;1.42;;;1.20;99.90;;;;;;5257709;28;20066;-76
2021/12/28 03:42:49;;;;;;;2.10;2.00;;;1.10;99.90;;;;;;5255598;28;20047;-78
2021/12/28 03:45:22;;;;;;;0.80;0.80;;;1.10;99.90;;;;;;5246929;28;20024;-76
2021/12/28 03:47:53;;;;;;;0.70;0.70;;;1.10;99.90;;;;;;5235591;28;20323;-76
2021/12/28 03:50:26;;;;;;;1.35;1.25;;;1.10;99.90;;;;;;5233005;28;20081;-76
2021/12/28 03:52:59;;;;;;;1.30;1.30;;;1.00;99.90;;;;;;5257665;28;20326;-76
2021/12/28 03:55:31;;;;;;;0.70;0.70;;;1.00;99.90;;;;;;5236684;28;20134;-75
2021/12/28 03:58:06;;;;;;;1.63;0.77;;;0.70;99.90;;;;;;5262559;28;20031;-75
2021/12/28 04:00:47;;;;;;;0.43;0.43;;;0.80;99.90;;;;;;5244942;28;20016;-76
2021/12/28 04:03:18;;;;;;;0.50;0.50;;;0.80;99.90;;;;;;5251939;28;20036;-76
2021/12/28 04:05:51;;;;;;;0.57;0.57;;;0.80;99.90;;;;;;5246825;28;20048;-76
2021/12/28 04:08:28;;;;;;;0.60;0.60;;;0.80;99.90;;;;;;5234022;28;20027;-76
2021/12/28 04:11:14;;;;;;;0.60;0.60;;;0.90;99.90;;;;;;5250420;28;20043;-75
2021/12/28 04:13:56;;;;;;;0.60;0.60;;;1.00;99.90;;;;;;5247971;28;20036;-76
2021/12/28 04:16:32;;;;;;;1.23;1.23;;;1.00;99.90;;;;;;5253567;28;20030;-78
2021/12/28 04:19:07;;;;;;;0.80;0.80;;;1.00;99.90;;;;;;5253334;28;20043;-76
2021/12/28 04:21:39;;;;;;;0.52;0.52;;;1.10;99.90;;;;;;5248216;28;20046;-75
2021/12/28 04:24:10;;;;;;;0.70;0.70;;;1.10;99.90;;;;;;5215681;28;20044;-77
2021/12/28 04:26:43;;;;;;;0.65;0.65;;;1.00;99.90;;;;;;5272121;28;20055;-75
2021/12/28 04:29:18;;;;;;;0.73;0.73;;;1.10;99.90;;;;;;5246497;28;20103;-76
2021/12/28 04:31:48;;;;;;;0.52;0.52;;;1.10;99.90;;;;;;5216380;28;20359;-77
2021/12/28 04:34:22;;;;;;;1.35;1.35;;;1.20;99.90;;;;;;5253028;28;20036;-76
2021/12/28 04:36:53;;;;;;;1.08;0.98;;;1.10;99.90;;;;;;5246636;28;20067;-74
2021/12/28 04:39:29;;;;;;;0.63;0.63;;;1.10;99.90;;;;;;5237737;28;20050;-76
2021/12/28 04:42:05;;;;;;;1.45;1.42;;;1.00;99.90;;;;;;5247988;28;20027;-75
2021/12/28 04:44:36;;;;;;;0.45;0.45;;;0.90;99.90;;;;;;5241946;28;20095;-77
2021/12/28 04:47:11;;;;;;;2.05;1.95;;;0.80;99.90;;;;;;5247570;28;20040;-76
2021/12/28 04:49:43;;;;;;;0.70;0.70;;;0.80;99.90;;;;;;5235349;28;20036;-77
2021/12/28 04:52:14;;;;;;;1.05;1.02;;;0.90;99.90;;;;;;5246661;28;20040;-76
2021/12/28 04:54:48;;;;;;;0.60;0.60;;;0.90;99.90;;;;;;5257587;28;20032;-76
2021/12/28 04:57:21;;;;;;;0.57;0.57;;;0.80;99.90;;;;;;5237090;28;20116;-76
2021/12/28 04:59:55;;;;;;;0.80;0.80;;;0.80;99.90;;;;;;5249423;28;20036;-75
2021/12/28 05:02:28;;;;;;;0.70;0.70;;;0.80;99.90;;;;;;5250722;28;20032;-78
2021/12/28 05:05:03;;;;;;;0.50;0.50;;;0.70;99.90;;;;;;5238134;28;20056;-78
2021/12/28 05:07:40;;;;;;;0.60;0.60;;;0.70;99.90;;;;;;5245962;28;20556;-76
2021/12/28 05:10:12;;;;;;;0.50;0.50;;;0.80;99.90;;;;;;5246354;28;20459;-76
2021/12/28 05:12:45;;;;;;;0.50;0.50;;;0.80;99.90;;;;;;5255706;28;20338;-76
2021/12/28 05:15:20;;;;;;;0.90;0.90;;;0.80;99.90;;;;;;5263441;28;20025;-76
2021/12/28 05:17:51;;;;;;;0.40;0.40;;;0.70;99.90;;;;;;5253751;28;20447;-77
2021/12/28 05:20:24;;;;;;;0.55;0.55;;;0.60;99.90;;;;;;5257245;28;20048;-75
2021/12/28 05:22:55;;;;;;;1.95;1.85;;;0.60;99.90;;;;;;5258122;28;20040;-75
2021/12/28 05:25:28;;;;;;;1.13;1.00;;;0.70;99.90;;;;;;5239328;28;20071;-76
2021/12/28 05:28:01;;;;;;;1.40;1.30;;;0.70;99.90;;;;;;5254083;28;20040;-76
2021/12/28 05:30:33;;;;;;;1.25;1.25;;;0.70;99.90;;;;;;5253453;28;20281;-78
2021/12/28 05:33:05;;;;;;;0.73;0.73;;;0.80;99.90;;;;;;5240528;28;20039;-75
2021/12/28 05:35:37;;;;;;;0.50;0.50;;;0.80;99.90;;;;;;5252412;28;20100;-76
2021/12/28 05:38:13;;;;;;;0.60;0.60;;;0.80;99.90;;;;;;5249375;28;20371;-76
2021/12/28 05:40:45;;;;;;;0.50;0.50;;;0.70;99.90;;;;;;5254397;28;20023;-77
2021/12/28 05:43:21;;;;;;;1.10;1.10;;;0.70;99.90;;;;;;5239718;28;20031;-77
2021/12/28 05:45:54;;;;;;;0.50;0.50;;;0.70;99.90;;;;;;5251890;28;20067;-76
2021/12/28 05:48:28;;;;;;;0.65;0.65;;;0.70;99.90;;;;;;5237054;28;20266;-76
2021/12/28 05:51:04;;;;;;;0.88;0.88;;;0.70;99.90;;;;;;5244786;28;20048;-76
2021/12/28 05:53:35;;;;;;;0.93;0.93;;;0.60;99.90;;;;;;5244145;28;20068;-74
2021/12/28 05:56:08;;;;;;;0.95;0.95;;;0.60;99.90;;;;;;5252162;28;20048;-75
2021/12/28 05:58:39;;;;;;;1.87;1.77;;;0.70;99.90;;;;;;5249172;28;20047;-77
2021/12/28 06:01:11;;;;;;;0.73;0.73;;;0.70;99.90;;;;;;5241623;28;20840;-77
2021/12/28 06:03:48;;;;;;;1.35;1.35;;;0.70;99.90;;;;;;5220234;28;20047;-76
2021/12/28 06:06:21;;;;;;;0.60;0.60;;;0.70;99.90;;;;;;5244369;28;20052;-76
2021/12/28 06:08:52;;;;;;;0.57;0.57;;;0.70;99.90;;;;;;5263723;28;20040;-78
2021/12/28 06:11:29;;;;;;;0.50;0.50;;;0.70;99.90;;;;;;5239403;28;20052;-77
2021/12/28 06:14:00;;;;;;;0.50;0.50;;;0.70;99.90;;;;;;5253114;28;20099;-76
2021/12/28 06:16:36;;;;;;;2.65;1.95;;;0.70;99.90;;;;;;5251974;28;20357;-77
2021/12/28 06:19:10;;;;;;;0.80;0.80;;;0.60;99.90;;;;;;5246350;28;20077;-76
2021/12/28 06:21:43;;;;;;;2.08;1.98;;;0.70;99.90;;;;;;5243787;28;20047;-76
2021/12/28 06:24:17;;;;;;;0.90;0.90;;;0.70;99.90;;;;;;5223552;28;20112;-79
2021/12/28 06:26:48;;;;;;;1.52;1.42;;;0.60;99.90;;;;;;5224977;28;20086;-76
2021/12/28 06:29:20;;;;;;;0.90;0.90;;;0.60;99.90;;;;;;5250020;28;20032;-77
2021/12/28 06:31:56;;;;;;;0.90;0.90;;;0.60;99.90;;;;;;5252568;28;20450;-77
2021/12/28 06:34:32;;;;;;;0.70;0.70;;;0.60;99.90;;;;;;5231336;28;20032;-75
2021/12/28 06:37:10;;;;;;;0.60;0.60;;;0.60;99.90;;;;;;5250363;28;20032;-76
2021/12/28 06:39:46;;;;;;;0.60;0.60;;;0.70;99.90;;;;;;5253322;28;20033;-78
2021/12/28 06:42:19;;;;;;;1.15;1.15;;;0.80;99.90;;;;;;5241831;28;20093;-75
2021/12/28 06:44:52;;;;;;;1.40;1.30;;;0.80;99.90;;;;;;5235298;28;20032;-76
2021/12/28 06:47:28;;;;;;;0.60;0.60;;;0.80;99.90;;;;;;5247793;28;20036;-76
2021/12/28 06:50:01;;;;;;;1.08;1.05;;;0.70;99.90;;;;;;5252992;28;20036;-75
2021/12/28 06:52:33;;;;;;;0.60;0.60;;;0.80;99.90;;;;;;5242293;28;20044;-75
2021/12/28 06:55:10;;;;;;;1.05;1.05;;;0.70;99.90;;;;;;5242649;28;20095;-76
2021/12/28 06:57:43;;;;;;;1.60;1.50;;;0.70;99.90;;;;;;5256240;28;20040;-76
2021/12/28 07:00:21;;;;;;;0.70;0.70;;;0.70;99.90;;;;;;5254506;28;20028;-74
2021/12/28 07:02:55;;;;;;;1.02;1.02;;;0.60;99.90;;;;;;5238784;28;20048;-76
2021/12/28 07:05:27;;;;;;;0.95;0.95;;;0.60;99.90;;;;;;5226646;28;20144;-76
2021/12/28 07:08:02;;;;;;;1.17;1.17;;;0.60;99.90;;;;;;5238658;28;20803;-76
2021/12/28 07:10:33;;;;;;;3.33;2.22;;;0.60;99.90;;;;;;5225352;28;20050;-77
2021/12/28 07:13:05;;;;;;;0.70;0.70;;;0.60;99.90;;;;;;5242349;28;20024;-78
2021/12/28 07:15:44;;;;;;;2.72;2.63;;;0.60;99.90;;;;;;5246174;28;20051;-77
2021/12/28 07:18:18;;;;;;;0.80;0.80;;;0.60;99.90;;;;;;5240069;28;20044;-76
2021/12/28 07:20:49;;;;;;;1.25;1.25;;;0.70;99.90;;;;;;5239651;28;20052;-78
2021/12/28 07:23:25;;;;;;;0.65;0.65;;;0.70;99.90;;;;;;5248880;28;20051;-77
2021/12/28 07:26:02;;;;;;;1.83;1.73;;;0.60;99.90;;;;;;5253736;28;20437;-77
2021/12/28 07:28:35;;;;;;;2.80;2.65;;;0.50;99.90;;;;;;5259260;28;20470;-77
2021/12/28 07:31:06;;;;;;;0.90;0.90;;;0.60;99.90;;;;;;5253334;28;20028;-78
2021/12/28 07:33:39;;;;;;;1.92;1.83;;;0.70;99.90;;;;;;5258714;28;20031;-77
2021/12/28 07:36:15;;;;;;;0.75;0.75;;;0.70;99.90;;;;;;5245802;28;20064;-77
2021/12/28 07:38:48;;;;;;;0.65;0.65;;;0.70;99.90;;;;;;5238538;28;20447;-76
2021/12/28 07:41:25;;;;;;;1.85;1.75;;;0.80;99.90;;;;;;5258244;28;20206;-77
2021/12/28 07:44:00;;;;;;;0.73;0.73;;;0.70;99.90;;;;;;5231837;28;20029;-77
2021/12/28 07:46:34;;;;;;;0.82;0.82;;;0.70;99.90;;;;;;5256181;28;20032;-76
2021/12/28 07:49:08;;;;;;;1.65;1.60;;;0.80;99.90;;;;;;5253425;28;20051;-77
2021/12/28 07:51:42;;;;;;;1.20;1.20;;;0.80;99.90;;;;;;5243713;28;20113;-77
2021/12/28 07:54:21;;;;;;;4.63;2.17;;;0.80;99.90;;;;;;5214838;28;20067;-76
2021/12/28 07:56:54;;;;;;;2.38;1.42;;;0.90;99.90;;;;;;5243444;28;20059;-76
2021/12/28 07:59:28;;;;;;;1.10;1.10;;;0.70;99.90;;;;;;5251532;28;20028;-76
2021/12/28 08:02:00;;;;;;;3.13;2.60;;;0.70;99.90;;;;;;5251909;28;20255;-77
2021/12/28 08:04:31;;;;;;;2.97;2.78;;;0.80;99.90;;;;;;5252082;28;20308;-77
2021/12/28 08:07:07;;;;;;;2.03;1.92;;;1.00;99.90;;;;;;5253662;28;20036;-77
2021/12/28 08:09:38;;;;;;;3.67;3.42;;;1.10;99.90;;;;;;5240252;28;20521;-77
2021/12/28 08:12:14;;;;;;;1.40;1.40;;;1.10;99.90;;;;;;5223712;28;20055;-77
2021/12/28 08:14:47;;;;;;;2.00;1.90;;;1.10;99.90;;;;;;5250721;28;20055;-76
2021/12/28 08:17:19;;;;;;;3.13;2.55;;;1.10;99.90;;;;;;5254379;28;20047;-76
2021/12/28 08:19:53;;;;;;;2.67;2.38;;;1.10;99.90;;;;;;5211340;28;20605;-76
2021/12/28 08:22:24;;;;;;;3.50;3.20;;;1.10;99.90;;;;;;5249676;28;20141;-76
2021/12/28 08:24:59;;;;;;;0.80;0.80;;;1.20;99.90;;;;;;5251234;28;20072;-77
2021/12/28 08:27:33;;;;;;;0.88;0.88;;;1.20;99.90;;;;;;5242970;28;20059;-75
2021/12/28 08:30:11;;;;;;;0.55;0.55;;;1.20;99.90;;;;;;5267291;28;20029;-76
2021/12/28 08:32:43;;;;;;;1.15;1.15;;;1.20;99.90;;;;;;5250437;28;20036;-76
2021/12/28 08:35:18;;;;;;;2.05;1.95;;;1.10;99.90;;;;;;5255630;28;20469;-75
2021/12/28 08:37:51;;;;;;;1.48;1.38;;;1.10;99.90;;;;;;5268855;28;20056;-75
2021/12/28 08:40:25;;;;;;;2.38;2.28;;;1.20;99.90;;;;;;5252494;28;20177;-76
2021/12/28 08:42:58;;;;;;;0.52;0.52;;;1.30;99.90;;;;;;5233371;28;20538;-75
2021/12/28 08:45:38;;;;;;;1.65;1.60;;;1.30;99.90;;;;;;5251627;28;20032;-75
2021/12/28 08:48:13;;;;;;;3.25;3.05;;;1.30;99.90;;;;;;5227606;28;20493;-75
2021/12/28 08:50:47;;;;;;;1.13;1.13;;;1.30;99.90;;;;;;5253590;28;20311;-73
2021/12/28 08:53:21;;;;;;;1.30;1.30;;;1.20;99.90;;;;;;5249068;28;20061;-73
2021/12/28 08:55:52;;;;;;;2.03;1.95;;;1.00;99.90;;;;;;5252650;28;20033;-73
2021/12/28 08:58:33;;;;;;;4.53;2.45;;;1.00;99.90;;;;;;5233688;28;20116;-76
2021/12/28 09:01:04;;;;;;;4.40;4.10;;;1.00;99.90;;;;;;5259112;28;20036;-74
2021/12/28 09:03:37;;;;;;;2.42;2.22;;;1.10;99.90;;;;;;5260602;28;20312;-73
2021/12/28 09:06:10;;;;;;;1.50;1.40;;;1.10;99.90;;;;;;5233213;28;20377;-73
2021/12/28 09:08:44;;;;;;;4.28;2.55;;;1.20;99.90;;;;;;5240227;28;20024;-74
2021/12/28 09:11:17;;;;;;;4.47;4.18;;;1.40;99.90;;;;;;5230952;28;20029;-77
2021/12/28 09:13:56;;;;;;;1.08;1.08;;;1.40;99.90;;;;;;5251509;28;20071;-75
2021/12/28 09:16:28;;;;;;;2.47;2.38;;;1.40;99.90;;;;;;5271912;28;20117;-75
2021/12/28 09:19:01;;;;;;;2.25;2.05;;;1.30;99.90;;;;;;5247860;28;20047;-74
2021/12/28 09:21:32;;;;;;;1.45;0.95;;;1.20;99.90;;;;;;5246574;28;20243;-75
2021/12/28 09:24:04;;;;;;;1.55;1.35;;;1.20;99.90;;;;;;5253017;28;20348;-74
2021/12/28 09:26:35;;;;;;;0.70;0.70;;;1.10;99.90;;;;;;5256882;28;20031;-75
2021/12/28 09:29:06;;;;;;;2.78;2.67;;;1.10;99.90;;;;;;5242819;28;20325;-74
2021/12/28 09:31:44;;;;;;;2.53;2.42;;;1.20;99.90;;;;;;5257953;28;20096;-75
2021/12/28 09:34:18;;;;;;;2.60;2.50;;;1.30;99.90;;;;;;5242584;28;20537;-75
2021/12/28 09:36:49;;;;;;;3.72;3.53;;;1.20;99.90;;;;;;5238939;28;20031;-75
2021/12/28 09:39:26;;;;;;;0.77;0.77;;;1.10;99.90;;;;;;5248249;28;20509;-75
2021/12/28 09:42:03;;;;;;;1.52;1.52;;;1.10;99.90;;;;;;5242070;28;20417;-74
2021/12/28 09:44:37;;;;;;;1.52;1.52;;;1.20;99.90;;;;;;5235281;28;20036;-75
2021/12/28 09:47:11;;;;;;;0.57;0.57;;;1.00;99.90;;;;;;5250738;28;20598;-75
2021/12/28 09:49:44;;;;;;;0.77;0.75;;;1.00;99.90;;;;;;5249420;28;20036;-74
2021/12/28 09:52:18;;;;;;;2.25;2.15;;;1.20;99.90;;;;;;5240689;28;20063;-74
2021/12/28 09:54:52;;;;;;;2.45;2.35;;;1.10;99.90;;;;;;5270246;28;20036;-75
2021/12/28 09:57:25;;;;;;;1.63;1.60;;;1.10;99.90;;;;;;5251775;28;20436;-74
2021/12/28 10:00:01;;;;;;;2.83;2.67;;;1.20;99.90;;;;;;5232470;28;20031;-75
2021/12/28 10:02:32;;;;;;;1.08;1.08;;;1.30;99.90;;;;;;5237979;28;20338;-76
2021/12/28 10:05:21;;;;;;;1.55;1.45;;;1.40;99.90;;;;;;5232142;28;20066;-76
2021/12/28 10:07:59;;;;;;;2.20;2.05;;;1.30;99.90;;;;;;5243220;28;20052;-76
2021/12/28 10:10:43;;;;;;;2.22;2.13;;;1.30;99.90;;;;;;5245597;28;20047;-76
2021/12/28 10:13:21;;;;;;;2.17;2.08;;;1.50;99.90;;;;;;5231772;28;20041;-75
2021/12/28 10:15:56;;;;;;;2.35;2.25;;;1.50;99.90;;;;;;5260876;28;20233;-75
2021/12/28 10:18:28;;;;;;;1.23;1.23;;;1.40;99.90;;;;;;5252782;28;20063;-76
2021/12/28 10:21:07;;;;;;;1.10;1.10;;;1.50;99.90;;;;;;5244638;28;20093;-76
2021/12/28 10:23:38;;;;;;;2.85;2.63;;;1.60;99.90;;;;;;5252732;28;20560;-77
2021/12/28 10:26:16;;;;;;;1.05;1.05;;;1.50;99.90;;;;;;5237622;28;20055;-75
2021/12/28 10:28:49;;;;;;;7.53;1.95;;;1.50;99.90;;;;;;5252952;28;20410;-75
2021/12/28 10:31:25;;;;;;;0.95;0.95;;;1.30;99.90;;;;;;5246183;28;20281;-75
2021/12/28 10:33:57;;;;;;;2.55;2.17;;;1.40;99.90;;;;;;5270341;28;20277;-76
2021/12/28 10:36:33;;;;;;;0.60;0.60;;;1.30;99.90;;;;;;5254022;28;20172;-76
2021/12/28 10:39:08;;;;;;;1.75;1.65;;;1.40;99.90;;;;;;5251171;28;20036;-75
2021/12/28 10:41:42;;;;;;;2.40;2.30;;;1.30;99.90;;;;;;5254064;28;20035;-75
2021/12/28 10:44:16;;;;;;;2.25;2.15;;;1.40;99.90;;;;;;5252870;28;20251;-75
2021/12/28 10:46:49;;;;;;;1.00;1.00;;;1.50;99.90;;;;;;5238750;28;20130;-75
2021/12/28 10:49:40;;;;;;;1.47;1.37;;;1.70;99.90;;;;;;5247942;28;20836;-76
2021/12/28 10:52:36;;;;;;;1.10;1.10;;;1.60;99.90;;;;;;5257131;28;20085;-76
2021/12/28 10:55:31;;;;;;;0.65;0.65;;;1.60;99.90;;;;;;5258421;28;20099;-75
2021/12/28 10:58:07;;;;;;;1.95;1.83;;;1.50;99.90;;;;;;5254050;28;20486;-75
2021/12/28 11:00:43;;;;;;;1.95;1.85;;;1.50;99.90;;;;;;5246215;28;20139;-76
2021/12/28 11:03:18;;;;;;;0.95;0.95;;;1.50;99.90;;;;;;5252643;28;20469;-76
2021/12/28 11:05:55;;;;;;;0.70;0.70;;;1.40;99.90;;;;;;5261036;28;20051;-76
2021/12/28 11:08:30;;;;;;;0.90;0.90;;;1.40;99.90;;;;;;5245698;28;20344;-74
2021/12/28 11:11:07;;;;;;;0.98;0.98;;;1.50;99.90;;;;;;5255304;28;20038;-76
2021/12/28 11:13:41;;;;;;;1.45;1.38;;;1.50;99.90;;;;;;5261632;28;20074;-75
2021/12/28 11:16:18;;;;;;;1.23;1.23;;;1.50;99.90;;;;;;5251140;28;20040;-75
2021/12/28 11:18:58;;;;;;;1.35;1.30;;;1.50;99.90;;;;;;5246280;28;20059;-75
2021/12/28 11:21:50;;;;;;;1.50;1.40;;;1.50;99.90;;;;;;5240868;28;20049;-75
2021/12/28 11:24:22;;;;;;;0.85;0.85;;;1.50;99.90;;;;;;5261735;28;20108;-78
2021/12/28 11:26:52;;;;;;;3.55;1.52;;;1.40;99.90;;;;;;5247654;28;20288;-74
2021/12/28 11:29:39;;;;;;;3.03;1.95;;;1.40;99.90;;;;;;5252812;28;20028;-76
2021/12/28 11:32:20;;;;;;;0.75;0.75;;;1.40;99.90;;;;;;5267791;28;20028;-75
2021/12/28 11:34:54;;;;;;;0.77;0.75;;;1.30;99.90;;;;;;5244017;28;20036;-78
2021/12/28 11:37:31;;;;;;;1.88;1.77;;;1.50;99.90;;;;;;5258234;28;20035;-77
2021/12/28 11:40:10;;;;;;;1.35;1.35;;;1.50;99.90;;;;;;5259413;28;20039;-75
2021/12/28 11:42:41;;;;;;;1.08;1.08;;;1.50;99.90;;;;;;5259138;28;20089;-75
2021/12/28 11:45:17;;;;;;;0.82;0.82;;;1.50;99.90;;;;;;5257924;28;20039;-74
2021/12/28 11:47:50;;;;;;;0.75;0.75;;;1.40;99.90;;;;;;5257611;28;20039;-76
2021/12/28 11:50:24;;;;;;;0.60;0.60;;;1.40;99.90;;;;;;5259115;28;20023;-77
2021/12/28 11:52:55;;;;;;;0.67;0.67;;;1.40;99.90;;;;;;5242349;28;20040;-75
2021/12/28 11:55:28;;;;;;;1.05;1.05;;;1.50;99.90;;;;;;5257303;28;20052;-76
2021/12/28 11:57:59;;;;;;;0.73;0.73;;;1.40;99.90;;;;;;5257815;28;20024;-76
2021/12/28 12:00:38;;;;;;;0.70;0.70;;;1.30;99.90;;;;;;5257233;28;20097;-76
2021/12/28 12:03:42;;;;;;;2.67;2.47;;;1.20;99.90;;;;;;5259805;28;20560;-77
2021/12/28 12:06:54;;;;;;;1.23;1.23;;;1.20;99.90;;;;;;5238294;28;20048;-75
2021/12/28 12:09:32;;;;;;;2.55;2.47;;;1.30;99.90;;;;;;5261216;28;20584;-75
2021/12/28 12:12:33;;;;;;;1.40;1.40;;;1.30;99.90;;;;;;5238380;28;20036;-77
2021/12/28 12:15:10;;;;;;;2.08;2.00;;;1.20;99.90;;;;;;5248831;28;20132;-76
2021/12/28 12:17:45;;;;;;;1.13;1.13;;;1.30;99.90;;;;;;5260550;28;20708;-75
2021/12/28 12:20:16;;;;;;;0.90;0.90;;;1.30;99.90;;;;;;5259341;28;20043;-76
2021/12/28 12:23:07;;;;;;;1.77;1.70;;;1.30;99.90;;;;;;5258429;28;20056;-75
2021/12/28 12:25:58;;;;;;;0.82;0.82;;;1.40;99.90;;;;;;5258860;28;20273;-75
2021/12/28 12:28:47;;;;;;;1.48;1.30;;;1.30;99.90;;;;;;5257561;28;20024;-75
2021/12/28 12:31:24;;;;;;;2.30;2.22;;;1.30;99.90;;;;;;5257196;28;20039;-77
2021/12/28 12:34:04;;;;;;;2.03;1.92;;;1.20;99.90;;;;;;5259717;28;20089;-75
2021/12/28 12:36:44;;;;;;;0.70;0.70;;;1.10;99.90;;;;;;5241968;28;20498;-77
2021/12/28 12:39:15;;;;;;;0.88;0.88;;;1.10;99.90;;;;;;5260881;28;20028;-75
2021/12/28 12:41:53;;;;;;;1.15;1.15;;;1.20;99.90;;;;;;5221200;28;20042;-75
2021/12/28 12:44:32;;;;;;;1.10;1.10;;;1.10;99.90;;;;;;5258580;28;20032;-75
2021/12/28 12:47:08;;;;;;;0.50;0.50;;;1.10;99.90;;;;;;5259208;28;20040;-75
2021/12/28 12:49:39;;;;;;;1.15;1.15;;;1.10;99.90;;;;;;5238603;28;20042;-75
2021/12/28 12:52:24;;;;;;;0.75;0.75;;;1.10;99.90;;;;;;5254601;28;20040;-76
2021/12/28 12:54:58;;;;;;;;;;;1.10;99.90;;;;;;5257190;28;20032;-77
2021/12/28 12:57:31;;;;;;;0.90;0.90;;;1.10;99.90;;;;;;5255958;28;19919;-76
2021/12/28 13:00:20;;;;;;;1.30;1.30;;;1.10;99.90;;;;;;5260720;28;20042;-75
2021/12/28 13:03:03;;;;;;;1.27;1.27;;;1.20;99.90;;;;;;5259034;28;20040;-76
2021/12/28 13:05:45;;;;;;;0.70;0.70;;;1.20;99.90;;;;;;5259033;28;20276;-77
2021/12/28 13:08:20;;;;;;;0.73;0.73;;;1.10;99.90;;;;;;5255837;28;20108;-75
2021/12/28 13:10:50;;;;;;;0.50;0.50;;;1.00;99.90;;;;;;5252262;28;20052;-74
2021/12/28 13:13:22;;;;;;;2.25;1.45;;;1.10;99.90;;;;;;5259398;28;20044;-75
2021/12/28 13:15:53;;;;;;;0.50;0.50;;;1.00;99.90;;;;;;5247569;28;20263;-75
2021/12/28 13:18:23;;;;;;;0.80;0.80;;;1.10;99.90;;;;;;5258234;28;20121;-75
2021/12/28 13:20:57;;;;;;;1.20;1.20;;;1.10;99.90;;;;;;5257568;28;20368;-75
2021/12/28 13:23:28;;;;;;;0.75;0.75;;;1.10;99.90;;;;;;5255861;28;20028;-74
2021/12/28 13:25:59;;;;;;;0.50;0.50;;;1.20;99.90;;;;;;5239412;28;20248;-75
2021/12/28 13:28:30;;;;;;;3.03;2.67;;;1.20;99.90;;;;;;5240007;28;20043;-75
2021/12/28 13:31:08;;;;;;;1.10;1.10;;;1.10;99.90;;;;;;5257676;28;20486;-75
2021/12/28 13:33:39;;;;;;;0.60;0.60;;;1.00;99.90;;;;;;5256600;28;20058;-74
2021/12/28 13:36:10;;;;;;;1.45;1.40;;;1.00;99.90;;;;;;5258154;28;20363;-74
2021/12/28 13:38:46;;;;;;;0.57;0.57;;;1.00;99.90;;;;;;5256242;28;20190;-74
2021/12/28 13:41:22;;;;;;;1.15;1.15;;;0.90;99.90;;;;;;5257319;28;20016;-75